Terminal Aerodrome Forecast
Issued by NWS Dodge City, KS

Home | Current Version | Previous Version | Graphics & Text | Print | Product List | Glossary Off
Versions: 1 2 3 4 5 6 7 8 9 10 11 12 13 14 15 16 17 18 19 20 21 22 23 24 25 26 27 28 29 30 31 32 33

000
FTUS43 KDDC 300211 AAB
TAFDDC
TAF AMD
KDDC 300211Z 3002/3024 34015G25KT P6SM OVC010
      TEMPO 3002/3006 -RA
     FM301400 34015G23KT P6SM BKN020
     FM301800 33014G22KT P6SM SCT035
     FM301900 33013KT P6SM SCT200=

USA.gov is the U.S. government's official web portal to all federal, state and local government web resources and services.